Time;durP1;ratioP1;P1;durP2;ratioP2;P2;SDS_P1;SDS_P2;PMS_P1;PMS_P2;Temp;Humidity;BMP_temperature;BMP_pressure;BME280_temperature;BME280_humidity;BME280_pressure;Samples;Min_cycle;Max_cycle;Signal;HPM_P1;HPM_P2
2022/03/20 00:02:25;;;;;;;4.95;2.00;;;;;;;5.53;67.98;103467.09;5092884;28;20107;-67
2022/03/20 00:04:50;;;;;;;2.90;1.90;;;;;;;5.54;67.99;103466.22;5094560;28;20367;-67
2022/03/20 00:07:16;;;;;;;5.22;2.10;;;;;;;5.47;68.60;103455.56;5092548;28;20036;-66
2022/03/20 00:09:42;;;;;;;6.50;2.35;;;;;;;5.41;69.63;103459.00;5093840;28;20050;-67
2022/03/20 00:12:08;;;;;;;5.45;2.03;;;;;;;5.39;69.83;103458.94;5091122;28;20387;-67
2022/03/20 00:14:33;;;;;;;6.40;2.10;;;;;;;5.34;69.44;103455.34;5094247;28;20390;-66
2022/03/20 00:16:58;;;;;;;3.85;2.20;;;;;;;5.25;70.58;103457.78;5088393;28;20038;-68
2022/03/20 00:19:25;;;;;;;6.45;2.20;;;;;;;5.22;71.09;103449.88;5088981;28;20553;-67
2022/03/20 00:21:50;;;;;;;4.93;2.42;;;;;;;5.21;71.04;103450.72;5123944;27;20028;-67
2022/03/20 00:24:17;;;;;;;4.28;2.00;;;;;;;5.15;71.94;103446.19;5085944;28;20031;-68
2022/03/20 00:26:43;;;;;;;5.88;2.42;;;;;;;5.09;71.79;103448.75;5090009;28;20440;-67
2022/03/20 00:29:08;;;;;;;4.88;2.38;;;;;;;5.08;72.50;103441.72;5084386;28;20024;-67
2022/03/20 00:31:34;;;;;;;4.55;2.13;;;;;;;5.05;72.73;103434.66;5090321;28;20032;-67
2022/03/20 00:34:00;;;;;;;6.28;2.67;;;;;;;5.05;72.73;103434.66;5084493;28;20085;-66
2022/03/20 00:36:25;;;;;;;5.20;2.60;;;;;;;5.05;73.54;103436.38;5089109;28;20032;-67
2022/03/20 00:38:50;;;;;;;4.78;2.83;;;;;;;5.03;73.73;103430.22;5072388;28;20391;-67
2022/03/20 00:41:16;;;;;;;5.97;2.85;;;;;;;5.01;73.97;103431.91;5090698;28;20121;-67
2022/03/20 00:43:41;;;;;;;5.25;2.90;;;;;;;4.96;74.30;103426.56;5091130;28;20024;-67
2022/03/20 00:46:09;;;;;;;4.45;2.80;;;;;;;4.91;75.45;103426.50;5090516;28;20028;-67
2022/03/20 00:48:34;;;;;;;7.30;3.20;;;;;;;4.92;75.90;103423.00;5092968;28;20475;-67
2022/03/20 00:51:03;;;;;;;7.07;2.97;;;;;;;4.95;75.74;103413.41;5090908;28;20040;-67
2022/03/20 00:53:32;;;;;;;7.40;3.25;;;;;;;4.92;76.45;103417.75;5087906;28;20047;-67
2022/03/20 00:55:57;;;;;;;6.70;3.20;;;;;;;4.89;76.35;103419.44;5088623;28;20057;-67
2022/03/20 00:58:22;;;;;;;6.43;3.47;;;;;;;4.88;76.59;103407.16;5089935;28;20433;-67
2022/03/20 01:00:48;;;;;;;6.40;3.42;;;;;;;4.85;77.70;103407.09;5086707;28;20110;-67
2022/03/20 01:03:13;;;;;;;7.25;3.50;;;;;;;4.82;77.77;103400.06;5091931;28;20058;-67
2022/03/20 01:05:39;;;;;;;6.57;3.60;;;;;;;4.75;77.88;103400.78;5126349;27;20028;-67
2022/03/20 01:08:04;;;;;;;8.15;3.88;;;;;;;4.73;78.77;103398.13;5093560;28;20050;-67
2022/03/20 01:10:29;;;;;;;6.22;3.90;;;;;;;4.73;79.53;103389.34;5093334;28;20036;-67
2022/03/20 01:12:56;;;;;;;7.10;3.65;;;;;;;4.75;79.49;103395.53;5090810;28;20032;-67
2022/03/20 01:15:21;;;;;;;7.68;4.00;;;;;;;4.76;79.11;103390.28;5091973;28;20153;-67
2022/03/20 01:17:46;;;;;;;8.82;4.30;;;;;;;4.73;79.97;103390.25;5126161;27;20119;-69
2022/03/20 01:20:12;;;;;;;7.43;4.15;;;;;;;4.69;80.24;103379.63;5092083;28;20471;-67
2022/03/20 01:22:39;;;;;;;9.48;4.68;;;;;;;4.67;80.63;103373.50;5093195;28;20475;-67
2022/03/20 01:25:06;;;;;;;7.97;4.43;;;;;;;4.65;80.80;103372.56;5092320;28;20031;-67
2022/03/20 01:27:32;;;;;;;8.75;4.30;;;;;;;4.64;81.09;103355.91;5092646;28;20054;-67
2022/03/20 01:29:58;;;;;;;7.70;4.68;;;;;;;4.62;81.28;103360.25;5091606;28;20467;-67
2022/03/20 01:32:26;;;;;;;7.97;5.00;;;;;;;4.60;81.44;103356.72;5090739;28;20447;-67
2022/03/20 01:34:51;;;;;;;9.15;4.85;;;;;;;4.56;81.92;103347.88;5089952;28;20103;-67
2022/03/20 01:37:17;;;;;;;9.25;5.30;;;;;;;4.53;82.04;103341.72;5091125;28;20060;-68
2022/03/20 01:39:42;;;;;;;11.30;5.47;;;;;;;4.54;81.98;103338.22;5091132;28;20028;-67
2022/03/20 01:42:08;;;;;;;10.43;5.15;;;;;;;4.54;81.74;103336.50;5092939;28;20077;-67
2022/03/20 01:44:35;;;;;;;8.88;4.63;;;;;;;4.53;82.42;103333.84;5089090;28;20360;-68
2022/03/20 01:47:02;;;;;;;9.52;5.20;;;;;;;4.52;82.04;103342.56;5090260;28;20055;-67
2022/03/20 01:49:28;;;;;;;12.18;7.05;;;;;;;4.50;81.97;103329.41;5091347;28;20031;-67
2022/03/20 01:52:23;;;;;;;10.05;5.85;;;;;;;4.50;81.27;103324.16;5092419;28;20024;-68
2022/03/20 01:54:49;;;;;;;11.18;6.00;;;;;;;4.54;82.17;103317.22;5092561;28;20032;-67
2022/03/20 01:57:22;;;;;;;10.38;5.97;;;;;;;4.55;81.19;103313.75;5090876;28;20104;-67
2022/03/20 01:59:49;;;;;;;9.98;6.18;;;;;;;4.51;81.45;103309.28;5092141;28;20035;-67
2022/03/20 02:02:14;;;;;;;11.35;6.18;;;;;;;4.49;81.58;103313.59;5092341;28;20047;-67
2022/03/20 02:04:40;;;;;;;11.05;6.80;;;;;;;4.48;81.45;103304.88;5090827;28;20062;-67
2022/03/20 02:07:07;;;;;;;10.20;6.45;;;;;;;4.44;81.21;103308.28;5090975;28;20103;-67
2022/03/20 02:09:36;;;;;;;12.50;6.88;;;;;;;4.44;81.69;103295.16;5092099;28;20032;-67
2022/03/20 02:12:02;;;;;;;12.65;6.65;;;;;;;4.43;81.48;103302.13;5092274;28;20051;-68
2022/03/20 02:14:28;;;;;;;10.45;6.60;;;;;;;4.41;81.70;103292.47;5091704;28;20111;-67
2022/03/20 02:16:55;;;;;;;12.57;6.60;;;;;;;4.38;81.60;103288.03;5087787;28;20120;-68
2022/03/20 02:19:21;;;;;;;12.05;7.30;;;;;;;4.38;81.82;103295.91;5082634;28;20538;-68
2022/03/20 02:21:48;;;;;;;12.52;7.30;;;;;;;4.39;81.95;103287.19;5090106;28;20070;-67
2022/03/20 02:24:43;;;;;;;14.93;7.22;;;;;;;4.36;82.15;103281.00;5092215;28;20428;-67
2022/03/20 02:27:18;;;;;;;17.08;8.40;;;;;;;4.35;81.60;103268.72;5091843;28;20415;-67
2022/03/20 02:29:45;;;;;;;12.57;7.72;;;;;;;4.37;81.55;103267.03;5077874;28;20012;-67
2022/03/20 02:32:12;;;;;;;12.55;7.70;;;;;;;4.37;81.63;103264.41;5076448;28;20047;-67
2022/03/20 02:34:39;;;;;;;12.88;7.85;;;;;;;4.36;81.25;103260.91;5092485;28;20086;-67
2022/03/20 02:37:05;;;;;;;11.77;7.20;;;;;;;4.29;81.65;103261.63;5076766;28;20040;-67
2022/03/20 02:39:32;;;;;;;12.43;7.38;;;;;;;4.26;81.98;103253.72;5077399;28;20039;-67
2022/03/20 02:42:01;;;;;;;12.68;7.68;;;;;;;4.26;81.73;103251.97;5089811;28;20025;-67
2022/03/20 02:45:06;;;;;;;13.52;8.00;;;;;;;4.20;82.18;103246.59;5085883;28;20066;-67
2022/03/20 02:47:43;;;;;;;14.77;7.97;;;;;;;4.18;82.10;103247.41;5083364;28;20020;-68
2022/03/20 02:50:17;;;;;;;12.98;7.85;;;;;;;4.14;82.36;103235.09;5081651;28;20356;-67
2022/03/20 02:52:47;;;;;;;12.63;7.95;;;;;;;4.12;82.75;103232.44;5073336;28;20028;-67
2022/03/20 02:55:14;;;;;;;12.90;8.13;;;;;;;4.05;82.85;103235.78;5075720;28;20024;-68
2022/03/20 02:57:39;;;;;;;12.52;8.18;;;;;;;4.02;83.16;103230.47;5088630;28;20017;-68
2022/03/20 03:00:05;;;;;;;13.98;7.85;;;;;;;3.96;83.52;103227.72;5058870;28;20028;-68
2022/03/20 03:02:36;;;;;;;14.15;8.32;;;;;;;3.90;84.12;103226.75;5104205;28;20369;-68
2022/03/20 03:05:01;;;;;;;13.80;8.05;;;;;;;3.91;84.35;103218.03;5084833;28;20032;-67
2022/03/20 03:07:30;;;;;;;13.80;8.23;;;;;;;3.92;84.51;103211.03;5085766;28;20040;-69
2022/03/20 03:12:40;;;;;;;13.48;8.00;;;;;;;3.94;84.41;103212.84;5084925;28;20054;-69
2022/03/20 03:15:21;;;;;;;12.73;8.48;;;;;;;3.91;84.54;103210.16;5086365;28;20028;-69
2022/03/20 03:17:48;;;;;;;15.05;8.38;;;;;;;3.91;85.05;103211.88;5089954;28;20035;-69
2022/03/20 03:20:14;;;;;;;12.32;7.88;;;;;;;3.91;85.30;103204.03;5092921;28;20020;-68
2022/03/20 03:22:39;;;;;;;14.48;7.63;;;;;;;3.90;85.21;103205.78;5092297;28;20028;-68
2022/03/20 03:25:06;;;;;;;16.10;7.53;;;;;;;3.85;85.59;103211.75;5078789;28;20043;-68
2022/03/20 03:27:31;;;;;;;14.57;8.38;;;;;;;3.84;85.55;103207.38;5089367;28;20032;-68
2022/03/20 03:29:56;;;;;;;12.68;7.22;;;;;;;3.85;86.71;103203.88;5091379;28;20031;-68
2022/03/20 03:32:22;;;;;;;15.65;6.97;;;;;;;3.82;86.28;103188.13;5085665;28;20028;-68
2022/03/20 03:37:32;;;;;;;13.50;7.65;;;;;;;3.77;87.17;103202.00;5079276;28;20187;-68
2022/03/20 03:40:01;;;;;;;14.77;7.45;;;;;;;3.79;87.22;103185.44;5079272;28;20882;-69
2022/03/20 03:42:26;;;;;;;15.23;7.07;;;;;;;3.72;87.41;103190.53;5089740;28;20482;-69
2022/03/20 03:44:52;;;;;;;13.80;7.32;;;;;;;3.69;87.30;103182.59;5079685;28;20066;-69
2022/03/20 03:47:17;;;;;;;14.05;7.57;;;;;;;3.66;88.15;103184.25;5113433;27;20028;-69
2022/03/20 03:49:43;;;;;;;12.30;7.03;;;;;;;3.62;88.01;103178.09;5118666;27;20031;-69
2022/03/20 03:52:08;;;;;;;11.40;7.03;;;;;;;3.67;87.95;103173.84;5086033;28;20767;-69
2022/03/20 03:54:34;;;;;;;11.70;7.57;;;;;;;3.71;87.98;103173.03;5088751;28;20028;-69
2022/03/20 03:56:59;;;;;;;13.27;7.28;;;;;;;3.68;87.63;103166.84;5084169;28;20131;-68
2022/03/20 03:59:25;;;;;;;13.48;7.18;;;;;;;3.64;87.76;103167.66;5081713;28;20067;-68
2022/03/20 04:01:50;;;;;;;15.73;7.75;;;;;;;3.63;88.04;103161.50;5085030;28;20085;-69
2022/03/20 04:04:15;;;;;;;12.52;6.97;;;;;;;3.59;88.29;103157.06;5079465;28;20052;-69
2022/03/20 04:06:41;;;;;;;13.05;6.85;;;;;;;3.61;87.79;103151.00;5086530;28;20032;-69
2022/03/20 04:09:07;;;;;;;12.70;6.97;;;;;;;3.58;87.65;103152.66;5110170;28;20067;-69
2022/03/20 04:11:32;;;;;;;11.55;7.05;;;;;;;3.54;88.00;103145.59;5078029;28;20037;-69
2022/03/20 04:13:58;;;;;;;12.25;7.47;;;;;;;3.50;88.77;103138.53;5113713;27;20027;-69
2022/03/20 04:16:23;;;;;;;14.48;7.18;;;;;;;3.43;88.66;103124.41;5075979;28;20034;-70
2022/03/20 04:18:49;;;;;;;14.43;7.00;;;;;;;3.44;88.14;103121.81;5077797;28;20486;-70
2022/03/20 04:21:14;;;;;;;11.40;7.15;;;;;;;3.48;88.35;103119.25;5087547;28;20066;-70
2022/03/20 04:23:44;;;;;;;11.38;6.70;;;;;;;3.47;87.58;103115.75;5085467;28;21440;-67
2022/03/20 04:26:10;;;;;;;15.10;7.78;;;;;;;3.46;88.45;103116.59;5077788;28;20398;-68
2022/03/20 04:28:36;;;;;;;13.95;7.85;;;;;;;3.42;88.12;103113.03;5074977;28;20039;-68
2022/03/20 04:31:01;;;;;;;15.05;7.97;;;;;;;3.36;88.48;103115.50;5081642;28;20477;-68
2022/03/20 04:33:29;;;;;;;16.42;8.23;;;;;;;3.35;88.16;103113.78;5075377;28;20567;-68
2022/03/20 04:35:55;;;;;;;14.52;7.70;;;;;;;3.37;88.17;103112.06;5074056;28;20040;-68
2022/03/20 04:38:21;;;;;;;15.23;8.68;;;;;;;3.33;88.08;103107.59;5089023;28;20040;-69
2022/03/20 04:40:48;;;;;;;14.85;8.02;;;;;;;3.31;88.14;103105.81;5089832;28;20031;-70
2022/03/20 04:43:13;;;;;;;15.40;8.50;;;;;;;3.32;87.96;103104.97;5089732;28;20016;-68
2022/03/20 04:45:39;;;;;;;13.23;7.68;;;;;;;3.30;88.03;103096.16;5076677;28;20040;-68
2022/03/20 04:59:00;;;;;;;13.40;8.10;;;;;;;3.18;87.46;103070.59;5093273;28;20399;-68
2022/03/20 05:01:25;;;;;;;14.32;8.02;;;;;;;3.19;87.23;103065.41;5074599;28;20056;-68
2022/03/20 05:03:51;;;;;;;17.63;8.63;;;;;;;3.22;87.69;103073.34;5079721;28;20043;-68
2022/03/20 05:06:16;;;;;;;14.38;8.68;;;;;;;3.18;86.93;103076.72;5076736;28;20035;-68
2022/03/20 05:08:42;;;;;;;14.48;8.55;;;;;;;3.12;87.14;103076.59;5089897;28;20107;-68
2022/03/20 05:13:51;;;;;;;15.10;8.18;;;;;;;3.07;87.58;103067.72;5081504;28;20042;-68
2022/03/20 05:16:17;;;;;;;16.55;9.00;;;;;;;3.04;88.07;103063.31;5079456;28;20037;-68
2022/03/20 05:18:42;;;;;;;19.30;9.25;;;;;;;3.03;87.22;103055.44;5081571;28;20020;-68
2022/03/20 05:21:10;;;;;;;16.67;9.18;;;;;;;2.99;87.88;103051.00;5088955;28;20032;-68
2022/03/20 05:23:36;;;;;;;15.05;8.48;;;;;;;3.00;87.78;103048.41;5077782;28;20025;-68
2022/03/20 05:26:02;;;;;;;16.00;9.05;;;;;;;2.99;87.58;103041.38;5086295;28;20032;-68
2022/03/20 05:28:27;;;;;;;17.65;9.48;;;;;;;3.02;86.92;103032.72;5087421;28;20028;-68
2022/03/20 05:30:54;;;;;;;18.95;9.40;;;;;;;3.00;86.70;103037.94;5106631;27;20062;-68
2022/03/20 05:33:19;;;;;;;18.77;10.18;;;;;;;3.01;87.42;103036.22;5113446;27;20035;-68
2022/03/20 05:35:47;;;;;;;17.60;9.82;;;;;;;2.98;87.29;103026.56;5086784;28;20069;-68
2022/03/20 05:38:13;;;;;;;19.23;9.30;;;;;;;2.95;87.10;103013.38;5083853;28;20032;-69
2022/03/20 05:40:39;;;;;;;15.27;9.25;;;;;;;2.91;86.59;103009.81;5086981;28;20067;-68
2022/03/20 05:43:08;;;;;;;17.38;9.38;;;;;;;2.88;86.64;103012.38;5083503;28;20032;-68
2022/03/20 05:45:34;;;;;;;18.52;9.48;;;;;;;2.89;86.74;103013.25;5087536;28;20047;-68
2022/03/20 05:47:59;;;;;;;19.55;10.10;;;;;;;2.87;87.08;103014.97;5077610;28;20028;-68
2022/03/20 05:50:25;;;;;;;17.83;9.27;;;;;;;2.91;87.00;103016.78;5076768;28;20398;-68
2022/03/20 05:52:52;;;;;;;17.50;9.60;;;;;;;2.86;86.24;103011.44;5083416;28;20074;-68
2022/03/20 05:55:18;;;;;;;18.02;9.68;;;;;;;2.82;87.09;103011.38;5087201;28;20046;-68
2022/03/20 05:58:01;;;;;;;17.08;9.52;;;;;;;2.92;86.04;103015.94;5124816;27;20387;-68
2022/03/20 06:00:28;;;;;;;17.05;9.48;;;;;;;2.91;86.21;103017.66;5076644;28;20391;-68
2022/03/20 06:02:54;;;;;;;16.45;10.02;;;;;;;2.95;85.43;102997.69;5087208;28;20035;-68
2022/03/20 06:05:20;;;;;;;15.98;9.52;;;;;;;3.06;84.87;103000.56;5089622;28;20040;-68
2022/03/20 06:07:47;;;;;;;17.42;9.32;;;;;;;3.06;85.10;103001.41;5096942;28;20452;-68
2022/03/20 06:10:14;;;;;;;16.98;9.82;;;;;;;3.13;84.86;102993.69;5090587;28;20049;-68
2022/03/20 06:12:40;;;;;;;15.52;9.48;;;;;;;3.18;84.02;102992.94;5073560;28;20024;-68
2022/03/20 06:15:08;;;;;;;16.98;9.82;;;;;;;3.21;83.77;102993.00;5091706;28;20027;-68
2022/03/20 06:17:39;;;;;;;18.45;9.65;;;;;;;3.25;84.01;102991.34;5095633;28;20517;-68
2022/03/20 06:20:06;;;;;;;18.90;9.63;;;;;;;3.30;83.74;102981.84;5087201;28;20488;-68
2022/03/20 06:22:33;;;;;;;17.42;9.90;;;;;;;3.35;83.03;102982.81;5093113;28;20109;-68
2022/03/20 06:24:58;;;;;;;18.38;9.60;;;;;;;3.49;82.11;102982.19;5090953;28;20543;-68
2022/03/20 06:27:24;;;;;;;23.48;10.57;;;;;;;3.52;81.75;102977.91;5124850;27;20504;-68
2022/03/20 06:29:49;;;;;;;23.02;10.35;;;;;;;3.63;81.40;102980.72;5093773;28;20043;-69
2022/03/20 06:32:15;;;;;;;18.70;9.93;;;;;;;3.66;80.51;102987.75;5107374;28;20032;-69
2022/03/20 06:34:42;;;;;;;16.95;9.95;;;;;;;3.68;79.78;102978.19;5094194;28;20399;-68
2022/03/20 06:37:08;;;;;;;20.60;10.02;;;;;;;3.75;79.36;102983.56;5088872;28;20028;-68
2022/03/20 06:39:33;;;;;;;19.48;9.98;;;;;;;3.85;79.10;102987.25;5106106;28;20121;-69
2022/03/20 06:42:00;;;;;;;17.63;10.15;;;;;;;3.90;78.68;102987.31;5117805;27;20047;-69
2022/03/20 06:44:25;;;;;;;19.05;10.35;;;;;;;3.98;77.51;102990.06;5139648;27;20030;-69
2022/03/20 06:46:51;;;;;;;15.05;9.75;;;;;;;4.05;77.17;102984.06;5091116;28;20036;-69
2022/03/20 06:49:17;;;;;;;17.70;9.40;;;;;;;4.10;76.83;102982.41;5093105;28;20024;-69
2022/03/20 06:51:42;;;;;;;17.95;9.93;;;;;;;4.19;77.28;102986.94;5097597;28;20115;-69
2022/03/20 06:54:07;;;;;;;16.73;9.88;;;;;;;4.22;77.05;102972.13;5092914;28;20039;-69
2022/03/20 06:56:33;;;;;;;18.52;10.25;;;;;;;4.29;76.20;102977.47;5091961;28;20065;-69
2022/03/20 06:58:58;;;;;;;18.52;9.55;;;;;;;4.20;75.81;102968.59;5094358;28;20398;-68
2022/03/20 07:01:24;;;;;;;16.48;10.27;;;;;;;4.24;75.97;102965.16;5092567;28;20064;-69
2022/03/20 07:03:49;;;;;;;20.60;10.38;;;;;;;4.27;75.61;102964.31;5090023;28;20128;-69
2022/03/20 07:06:15;;;;;;;19.42;10.88;;;;;;;4.30;76.03;102966.09;5091380;28;20035;-69
2022/03/20 07:08:40;;;;;;;17.85;10.18;;;;;;;4.36;75.24;102966.22;5088457;28;20032;-69
2022/03/20 07:11:05;;;;;;;19.42;10.32;;;;;;;4.54;75.14;102960.34;5085424;28;20036;-70
2022/03/20 07:13:49;;;;;;;17.75;10.20;;;;;;;4.73;73.41;102948.38;5085276;28;20039;-69
2022/03/20 07:16:15;;;;;;;15.95;10.18;;;;;;;4.70;72.59;102941.34;5086172;28;20032;-67
2022/03/20 07:18:41;;;;;;;16.00;9.77;;;;;;;4.74;73.23;102948.41;5087532;28;20437;-69
2022/03/20 07:21:08;;;;;;;18.63;10.10;;;;;;;4.85;72.31;102948.53;5092231;28;20118;-69
2022/03/20 07:23:35;;;;;;;20.60;10.95;;;;;;;4.88;72.63;102951.19;5093939;28;20031;-68
2022/03/20 07:31:28;;;;;;;21.08;10.55;;;;;;;5.27;71.51;102928.03;5096971;28;20517;-69
2022/03/20 07:33:54;;;;;;;19.25;10.95;;;;;;;5.34;71.15;102927.22;5091707;28;20032;-69
2022/03/20 07:36:19;;;;;;;20.40;11.35;;;;;;;5.25;70.57;102928.00;5092027;28;20479;-70
2022/03/20 07:38:45;;;;;;;18.73;10.00;;;;;;;5.35;70.85;102918.47;5087046;28;20056;-68
2022/03/20 07:41:11;;;;;;;17.33;11.02;;;;;;;5.26;69.73;102913.13;5092740;28;20074;-69
2022/03/20 07:43:36;;;;;;;19.00;11.10;;;;;;;5.12;70.02;102910.34;5095111;28;20538;-69
2022/03/20 07:46:01;;;;;;;17.90;10.68;;;;;;;5.04;70.79;102909.41;5091041;28;20040;-69
2022/03/20 07:48:27;;;;;;;19.23;10.43;;;;;;;5.18;69.57;102909.53;5091419;28;20032;-70
2022/03/20 07:50:53;;;;;;;18.02;11.02;;;;;;;5.27;69.35;102898.25;5070757;28;20032;-70
2022/03/20 07:53:18;;;;;;;16.65;10.90;;;;;;;5.28;70.19;102892.13;5094302;28;20080;-69
2022/03/20 07:55:45;;;;;;;19.05;10.85;;;;;;;5.25;69.38;102880.72;5092704;28;20024;-69
2022/03/20 07:58:12;;;;;;;18.38;11.52;;;;;;;5.28;69.40;102879.91;5093277;28;20073;-69
2022/03/20 08:00:39;;;;;;;18.05;10.27;;;;;;;5.42;68.75;102877.38;5089663;28;20027;-70
2022/03/20 08:03:05;;;;;;;17.50;10.68;;;;;;;5.57;66.66;102882.78;5075325;28;20036;-68
2022/03/20 08:05:30;;;;;;;17.60;11.45;;;;;;;5.57;66.34;102871.38;5092358;28;20111;-69
2022/03/20 08:07:56;;;;;;;19.83;11.65;;;;;;;5.66;66.59;102870.59;5093192;28;20147;-69
2022/03/20 08:10:21;;;;;;;18.65;10.80;;;;;;;5.72;65.69;102874.16;5091939;28;20036;-69
2022/03/20 08:12:48;;;;;;;21.42;10.75;;;;;;;5.84;65.86;102862.84;5091021;28;20441;-68
2022/03/20 08:15:16;;;;;;;18.17;10.90;;;;;;;5.80;64.90;102866.31;5074262;28;20024;-68
2022/03/20 08:17:46;;;;;;;17.77;11.32;;;;;;;5.87;64.99;102862.88;5091215;28;20070;-68
2022/03/20 08:20:12;;;;;;;17.60;11.15;;;;;;;6.04;65.51;102851.63;5086851;28;20425;-69
2022/03/20 08:22:38;;;;;;;19.52;10.93;;;;;;;6.09;63.97;102855.16;5088017;28;20076;-69
2022/03/20 08:25:05;;;;;;;19.23;11.68;;;;;;;6.20;62.69;102856.13;5090046;28;20040;-67
2022/03/20 08:27:30;;;;;;;19.63;11.07;;;;;;;6.21;62.91;102871.03;5087799;28;20033;-70
2022/03/20 08:29:57;;;;;;;19.10;11.73;;;;;;;6.15;62.94;102859.56;5078793;28;20040;-67
2022/03/20 08:32:23;;;;;;;19.30;11.18;;;;;;;6.12;63.71;102854.31;5089609;28;20114;-67
2022/03/20 08:34:50;;;;;;;19.88;11.45;;;;;;;6.16;63.50;102853.44;5090885;28;20072;-68
2022/03/20 08:37:15;;;;;;;19.67;12.57;;;;;;;6.20;64.55;102871.00;5088711;28;20039;-67
2022/03/20 08:39:40;;;;;;;18.38;11.50;;;;;;;6.16;62.69;102854.31;5079736;28;20119;-70
2022/03/20 08:42:07;;;;;;;20.67;12.18;;;;;;;6.10;62.90;102851.69;5091549;28;20107;-67
2022/03/20 08:44:32;;;;;;;21.30;11.50;;;;;;;5.92;63.79;102855.03;5092837;28;20113;-68
2022/03/20 08:46:58;;;;;;;19.45;10.88;;;;;;;6.02;63.95;102859.53;5092240;28;20417;-68
2022/03/20 08:49:23;;;;;;;18.75;11.70;;;;;;;6.12;63.07;102846.41;5091110;28;20036;-68
2022/03/20 08:51:49;;;;;;;18.33;11.55;;;;;;;6.22;63.85;102845.59;5092943;28;20039;-67
2022/03/20 08:54:14;;;;;;;19.33;12.00;;;;;;;6.36;61.04;102833.38;5075526;28;20028;-67
2022/03/20 08:56:39;;;;;;;21.02;12.18;;;;;;;6.22;62.40;102827.19;5083716;28;20020;-67
2022/03/20 08:59:06;;;;;;;18.17;11.10;;;;;;;6.27;62.38;102822.81;5092509;28;20032;-68
2022/03/20 09:01:31;;;;;;;19.52;11.57;;;;;;;6.39;61.43;102828.16;5091856;28;20070;-68
2022/03/20 09:03:57;;;;;;;18.25;11.85;;;;;;;6.48;61.63;102829.06;5093227;28;20406;-69
2022/03/20 09:06:23;;;;;;;22.38;12.80;;;;;;;6.31;62.53;102834.25;5092154;28;20024;-68
2022/03/20 09:08:50;;;;;;;20.13;12.48;;;;;;;6.24;60.89;102825.44;5092434;28;20487;-69
2022/03/20 09:11:20;;;;;;;17.63;11.68;;;;;;;6.12;59.63;102820.97;5093515;28;20505;-67
2022/03/20 09:13:46;;;;;;;20.73;12.13;;;;;;;6.13;59.60;102814.84;5092176;28;20077;-66
2022/03/20 09:18:59;;;;;;;20.02;11.93;;;;;;;6.23;58.43;102826.31;5092952;28;20124;-66
2022/03/20 09:21:28;;;;;;;18.70;12.05;;;;;;;6.26;59.03;102820.19;5090141;28;20639;-67
2022/03/20 09:23:54;;;;;;;20.17;12.30;;;;;;;6.21;60.08;102822.78;5084201;28;20051;-68
2022/03/20 09:26:20;;;;;;;22.27;11.93;;;;;;;6.22;60.78;102817.53;5087251;28;20081;-67
2022/03/20 09:28:46;;;;;;;20.42;11.95;;;;;;;6.20;60.84;102821.91;5092030;28;20050;-69
2022/03/20 09:31:13;;;;;;;19.83;12.27;;;;;;;6.20;61.21;102813.13;5090116;28;20498;-68
2022/03/20 09:33:39;;;;;;;21.05;11.82;;;;;;;6.17;61.29;102803.47;5092805;28;20023;-68
2022/03/20 09:36:05;;;;;;;21.58;12.68;;;;;;;6.21;60.82;102807.91;5091653;28;20494;-68
2022/03/20 09:38:31;;;;;;;23.55;12.52;;;;;;;6.22;60.81;102812.25;5089891;27;20028;-68
2022/03/20 09:40:58;;;;;;;21.05;12.52;;;;;;;6.33;60.75;102808.81;5074465;28;20020;-67
2022/03/20 09:43:24;;;;;;;21.05;12.23;;;;;;;6.43;61.13;102807.09;5091293;28;20040;-68
2022/03/20 09:45:52;;;;;;;20.13;12.48;;;;;;;6.52;60.33;102813.28;5096268;28;20457;-68
2022/03/20 09:48:18;;;;;;;19.80;12.05;;;;;;;6.72;59.34;102821.25;5103339;28;20035;-68
2022/03/20 09:50:45;;;;;;;21.40;12.05;;;;;;;6.82;58.77;102813.38;5092018;28;20103;-68
2022/03/20 09:53:10;;;;;;;21.88;13.65;;;;;;;6.81;58.53;102819.53;5105317;28;20055;-68
2022/03/20 09:55:36;;;;;;;23.70;14.00;;;;;;;6.89;58.36;102817.78;5098180;28;20070;-68
2022/03/20 09:58:01;;;;;;;24.67;15.18;;;;;;;6.87;58.78;102815.16;5091314;28;20020;-68
2022/03/20 10:00:27;;;;;;;21.77;14.75;;;;;;;6.90;57.85;102809.00;5069542;28;20064;-68
2022/03/20 10:02:52;;;;;;;20.83;13.50;;;;;;;6.88;57.61;102822.19;5091185;28;20034;-68
2022/03/20 10:05:26;;;;;;;30.02;16.55;;;;;;;6.93;57.90;102831.84;5105252;28;20032;-68
2022/03/20 10:07:51;;;;;;;20.08;13.70;;;;;;;7.18;56.40;102824.88;5091645;28;20055;-69
2022/03/20 10:10:23;;;;;;;26.13;13.60;;;;;;;7.24;56.50;102808.16;5089881;28;20059;-68
2022/03/20 10:12:52;;;;;;;21.38;12.82;;;;;;;7.21;55.15;102809.94;5086478;28;20032;-68
2022/03/20 10:15:36;;;;;;;22.65;13.13;;;;;;;7.13;56.19;102800.28;5091857;28;20023;-68
2022/03/20 10:18:09;;;;;;;22.00;12.88;;;;;;;7.06;54.43;102804.66;5091978;28;20047;-68
2022/03/20 10:20:47;;;;;;;22.95;12.73;;;;;;;7.01;55.79;102793.25;5091582;28;20063;-68
2022/03/20 10:23:42;;;;;;;21.70;13.40;;;;;;;6.99;56.02;102787.94;5091656;28;20103;-68
2022/03/20 10:26:16;;;;;;;23.40;13.32;;;;;;;7.19;55.78;102773.94;5091808;28;20020;-68
2022/03/20 10:28:44;;;;;;;20.02;13.45;;;;;;;7.42;55.76;102770.41;5089410;28;20036;-68
2022/03/20 10:31:17;;;;;;;24.13;13.60;;;;;;;7.73;54.68;102768.63;5088127;28;20047;-67
2022/03/20 10:33:46;;;;;;;22.13;12.77;;;;;;;8.03;53.47;102759.75;5106113;28;20032;-68
2022/03/20 10:36:25;;;;;;;23.90;14.05;;;;;;;8.87;52.34;102735.56;5085980;27;1282926;-68
2022/03/20 10:38:50;;;;;;;23.10;13.88;;;;;;;9.78;45.81;102744.47;5108772;28;20413;-68
2022/03/20 10:41:26;;;;;;;22.30;14.10;;;;;;;10.40;44.05;102735.81;5107288;28;20028;-69
2022/03/20 10:43:53;;;;;;;20.48;14.13;;;;;;;11.32;41.83;102722.88;5090242;28;20035;-68
2022/03/20 10:46:29;;;;;;;19.98;13.82;;;;;;;12.42;39.20;102704.78;5108795;28;20028;-68
2022/03/20 10:48:57;;;;;;;26.25;14.77;;;;;;;13.15;37.53;102714.56;5092693;28;20073;-68
2022/03/20 10:51:39;;;;;;;25.05;15.52;;;;;;;13.01;36.31;102722.88;5103993;28;20535;-68
2022/03/20 10:54:20;;;;;;;22.23;15.82;;;;;;;12.76;37.79;102717.28;5096132;28;20039;-68
2022/03/20 10:56:56;;;;;;;27.02;16.85;;;;;;;13.19;37.01;102713.56;5089897;28;20031;-68
2022/03/20 10:59:22;;;;;;;22.23;15.90;;;;;;;13.15;36.48;102727.00;5071732;28;20082;-69
2022/03/20 11:01:48;;;;;;;23.83;16.08;;;;;;;12.22;38.33;102740.63;5108504;28;20472;-67
2022/03/20 11:04:15;;;;;;;24.33;16.65;;;;;;;11.74;39.63;102733.59;5090832;28;20028;-67
2022/03/20 11:06:46;;;;;;;24.92;16.40;;;;;;;11.57;40.89;102731.28;5102670;28;20647;-68
2022/03/20 11:09:12;;;;;;;24.25;16.73;;;;;;;11.08;42.65;102738.31;5088664;28;20031;-67
2022/03/20 11:11:42;;;;;;;25.95;17.77;;;;;;;10.70;43.61;102730.97;5104095;28;20027;-67
2022/03/20 11:14:09;;;;;;;23.70;17.17;;;;;;;10.47;44.72;102748.06;5104653;28;20077;-68
2022/03/20 11:16:38;;;;;;;27.02;17.40;;;;;;;9.92;45.25;102742.53;5099322;28;20119;-68
2022/03/20 11:19:08;;;;;;;24.58;17.02;;;;;;;9.22;47.05;102752.03;5087164;28;20127;-68
2022/03/20 11:21:36;;;;;;;25.85;17.48;;;;;;;8.92;48.50;102751.41;5090028;28;20042;-67
2022/03/20 11:24:02;;;;;;;30.52;18.30;;;;;;;8.66;50.71;102755.97;5108338;28;20035;-68
2022/03/20 11:26:29;;;;;;;28.83;17.15;;;;;;;8.63;50.73;102748.06;5090039;28;20107;-67
2022/03/20 11:29:01;;;;;;;28.33;17.17;;;;;;;8.69;49.81;102752.44;5106978;28;20504;-67
2022/03/20 11:31:27;;;;;;;27.88;17.25;;;;;;;8.74;49.80;102745.34;5089543;28;20494;-67
2022/03/20 11:33:55;;;;;;;28.00;17.15;;;;;;;9.04;49.89;102732.81;5089230;28;20023;-67
2022/03/20 11:36:20;;;;;;;29.25;17.02;;;;;;;9.41;48.22;102729.84;5097251;28;20048;-67
2022/03/20 11:39:12;;;;;;;24.63;16.75;;;;;;;9.94;47.17;102734.59;5081710;28;20483;-67
2022/03/20 11:41:38;;;;;;;26.13;17.20;;;;;;;10.92;42.78;102728.84;5088071;28;20024;-68
2022/03/20 11:44:17;;;;;;;26.08;15.43;;;;;;;11.59;40.49;102728.59;5049993;28;20040;-67
2022/03/20 11:46:44;;;;;;;22.52;15.27;;;;;;;11.83;39.88;102729.00;5100336;28;20038;-67
2022/03/20 11:49:17;;;;;;;21.02;15.10;;;;;;;12.05;40.11;102726.84;5085985;28;20081;-67
2022/03/20 11:52:07;;;;;;;24.90;17.05;;;;;;;11.36;42.08;102729.03;5085150;28;20027;-68